sensor_id;sensor_type;location;lat;lon;timestamp;P1;durP1;ratioP1;P2;durP2;ratioP2
23082;SDS011;11709;52.420;10.538;2023-04-15T00:01:04;26.23;;;15.65;;
23082;SDS011;11709;52.420;10.538;2023-04-15T00:05:06;29.00;;;17.27;;
23082;SDS011;11709;52.420;10.538;2023-04-15T00:09:09;10.48;;;9.38;;
23082;SDS011;11709;52.420;10.538;2023-04-15T00:13:12;34.05;;;17.05;;
23082;SDS011;11709;52.420;10.538;2023-04-15T00:17:15;13.65;;;11.83;;
23082;SDS011;11709;52.420;10.538;2023-04-15T00:21:18;15.75;;;13.00;;
23082;SDS011;11709;52.420;10.538;2023-04-15T00:25:20;16.40;;;15.05;;
23082;SDS011;11709;52.420;10.538;2023-04-15T00:29:23;20.60;;;12.05;;
23082;SDS011;11709;52.420;10.538;2023-04-15T00:33:26;11.78;;;10.75;;
23082;SDS011;11709;52.420;10.538;2023-04-15T00:37:29;11.22;;;10.35;;
23082;SDS011;11709;52.420;10.538;2023-04-15T00:41:32;13.25;;;10.35;;
23082;SDS011;11709;52.420;10.538;2023-04-15T00:45:34;29.57;;;15.15;;
23082;SDS011;11709;52.420;10.538;2023-04-15T00:49:37;25.37;;;13.25;;
23082;SDS011;11709;52.420;10.538;2023-04-15T00:53:39;11.03;;;10.00;;
23082;SDS011;11709;52.420;10.538;2023-04-15T00:57:42;25.43;;;13.10;;
23082;SDS011;11709;52.420;10.538;2023-04-15T01:01:45;16.00;;;14.45;;
23082;SDS011;11709;52.420;10.538;2023-04-15T01:05:48;17.45;;;13.83;;
23082;SDS011;11709;52.420;10.538;2023-04-15T01:09:52;16.27;;;15.17;;
23082;SDS011;11709;52.420;10.538;2023-04-15T01:13:55;25.20;;;13.98;;
23082;SDS011;11709;52.420;10.538;2023-04-15T01:18:00;21.73;;;14.60;;
23082;SDS011;11709;52.420;10.538;2023-04-15T01:22:03;37.03;;;15.23;;
23082;SDS011;11709;52.420;10.538;2023-04-15T01:26:06;19.63;;;12.93;;
23082;SDS011;11709;52.420;10.538;2023-04-15T01:30:12;16.65;;;10.85;;
23082;SDS011;11709;52.420;10.538;2023-04-15T01:34:15;11.90;;;10.88;;
23082;SDS011;11709;52.420;10.538;2023-04-15T01:38:18;15.37;;;13.90;;
23082;SDS011;11709;52.420;10.538;2023-04-15T01:42:20;9.28;;;8.43;;
23082;SDS011;11709;52.420;10.538;2023-04-15T01:46:23;7.97;;;7.28;;
23082;SDS011;11709;52.420;10.538;2023-04-15T01:50:26;27.55;;;11.28;;
23082;SDS011;11709;52.420;10.538;2023-04-15T01:54:28;9.03;;;8.13;;
23082;SDS011;11709;52.420;10.538;2023-04-15T01:58:31;43.75;;;17.30;;
23082;SDS011;11709;52.420;10.538;2023-04-15T02:02:34;26.37;;;14.43;;
23082;SDS011;11709;52.420;10.538;2023-04-15T02:06:36;16.37;;;15.20;;
23082;SDS011;11709;52.420;10.538;2023-04-15T02:10:39;22.67;;;21.27;;
23082;SDS011;11709;52.420;10.538;2023-04-15T02:14:41;19.35;;;18.15;;
23082;SDS011;11709;52.420;10.538;2023-04-15T02:18:44;23.10;;;21.65;;
23082;SDS011;11709;52.420;10.538;2023-04-15T02:22:47;20.72;;;19.42;;
23082;SDS011;11709;52.420;10.538;2023-04-15T02:26:50;21.95;;;20.57;;
23082;SDS011;11709;52.420;10.538;2023-04-15T02:30:53;21.82;;;20.62;;
23082;SDS011;11709;52.420;10.538;2023-04-15T02:35:01;24.10;;;22.65;;
23082;SDS011;11709;52.420;10.538;2023-04-15T02:39:08;25.43;;;23.92;;
23082;SDS011;11709;52.420;10.538;2023-04-15T02:43:12;25.62;;;24.02;;
23082;SDS011;11709;52.420;10.538;2023-04-15T02:47:15;23.20;;;21.75;;
23082;SDS011;11709;52.420;10.538;2023-04-15T02:51:18;27.35;;;25.62;;
23082;SDS011;11709;52.420;10.538;2023-04-15T02:55:22;22.20;;;21.00;;
23082;SDS011;11709;52.420;10.538;2023-04-15T02:59:26;26.52;;;24.87;;
23082;SDS011;11709;52.420;10.538;2023-04-15T03:03:29;20.62;;;19.42;;
23082;SDS011;11709;52.420;10.538;2023-04-15T03:07:32;25.55;;;24.15;;
23082;SDS011;11709;52.420;10.538;2023-04-15T03:11:34;24.70;;;23.25;;
23082;SDS011;11709;52.420;10.538;2023-04-15T03:15:39;26.52;;;24.87;;
23082;SDS011;11709;52.420;10.538;2023-04-15T03:19:42;23.38;;;22.10;;
23082;SDS011;11709;52.420;10.538;2023-04-15T03:23:45;25.05;;;23.55;;
23082;SDS011;11709;52.420;10.538;2023-04-15T03:27:49;20.93;;;19.73;;
23082;SDS011;11709;52.420;10.538;2023-04-15T03:31:51;24.25;;;22.73;;
23082;SDS011;11709;52.420;10.538;2023-04-15T03:35:54;22.52;;;21.25;;
23082;SDS011;11709;52.420;10.538;2023-04-15T03:39:57;23.10;;;21.80;;
23082;SDS011;11709;52.420;10.538;2023-04-15T03:43:59;22.65;;;21.37;;
23082;SDS011;11709;52.420;10.538;2023-04-15T03:48:02;22.27;;;20.95;;
23082;SDS011;11709;52.420;10.538;2023-04-15T03:52:05;21.40;;;20.20;;
23082;SDS011;11709;52.420;10.538;2023-04-15T03:56:07;28.32;;;26.82;;
23082;SDS011;11709;52.420;10.538;2023-04-15T04:00:10;26.55;;;25.02;;
23082;SDS011;11709;52.420;10.538;2023-04-15T04:04:12;28.02;;;26.48;;
23082;SDS011;11709;52.420;10.538;2023-04-15T04:08:15;25.08;;;23.70;;
23082;SDS011;11709;52.420;10.538;2023-04-15T04:12:19;27.65;;;26.05;;
23082;SDS011;11709;52.420;10.538;2023-04-15T04:16:21;28.17;;;26.42;;
23082;SDS011;11709;52.420;10.538;2023-04-15T04:20:24;25.32;;;24.05;;
23082;SDS011;11709;52.420;10.538;2023-04-15T04:24:26;25.60;;;24.23;;
23082;SDS011;11709;52.420;10.538;2023-04-15T04:28:29;27.37;;;25.80;;
23082;SDS011;11709;52.420;10.538;2023-04-15T04:32:32;29.35;;;27.60;;
23082;SDS011;11709;52.420;10.538;2023-04-15T04:36:34;27.13;;;25.65;;
23082;SDS011;11709;52.420;10.538;2023-04-15T04:40:37;27.90;;;26.27;;
23082;SDS011;11709;52.420;10.538;2023-04-15T04:44:39;28.45;;;26.85;;
23082;SDS011;11709;52.420;10.538;2023-04-15T04:48:42;30.25;;;28.47;;
23082;SDS011;11709;52.420;10.538;2023-04-15T04:52:45;27.65;;;26.30;;
23082;SDS011;11709;52.420;10.538;2023-04-15T04:56:47;29.82;;;28.17;;
23082;SDS011;11709;52.420;10.538;2023-04-15T05:00:50;30.52;;;28.83;;
23082;SDS011;11709;52.420;10.538;2023-04-15T05:04:52;30.62;;;28.95;;
23082;SDS011;11709;52.420;10.538;2023-04-15T05:08:55;30.82;;;29.02;;
23082;SDS011;11709;52.420;10.538;2023-04-15T05:12:57;31.37;;;29.52;;
23082;SDS011;11709;52.420;10.538;2023-04-15T05:17:00;28.92;;;27.30;;
23082;SDS011;11709;52.420;10.538;2023-04-15T05:21:03;27.67;;;26.15;;
23082;SDS011;11709;52.420;10.538;2023-04-15T05:25:06;29.42;;;27.73;;
23082;SDS011;11709;52.420;10.538;2023-04-15T05:29:09;29.87;;;28.15;;
23082;SDS011;11709;52.420;10.538;2023-04-15T05:33:12;28.73;;;27.17;;
23082;SDS011;11709;52.420;10.538;2023-04-15T05:37:14;28.85;;;27.27;;
23082;SDS011;11709;52.420;10.538;2023-04-15T05:41:17;30.05;;;28.45;;
23082;SDS011;11709;52.420;10.538;2023-04-15T05:45:19;28.20;;;26.73;;
23082;SDS011;11709;52.420;10.538;2023-04-15T05:49:22;28.23;;;26.65;;
23082;SDS011;11709;52.420;10.538;2023-04-15T05:53:25;29.23;;;27.65;;
23082;SDS011;11709;52.420;10.538;2023-04-15T05:57:27;30.20;;;28.52;;
23082;SDS011;11709;52.420;10.538;2023-04-15T06:01:30;30.82;;;29.18;;
23082;SDS011;11709;52.420;10.538;2023-04-15T06:05:33;30.55;;;28.85;;
23082;SDS011;11709;52.420;10.538;2023-04-15T06:09:36;30.48;;;28.85;;
23082;SDS011;11709;52.420;10.538;2023-04-15T06:13:38;28.23;;;26.70;;
23082;SDS011;11709;52.420;10.538;2023-04-15T06:17:41;38.10;;;36.13;;
23082;SDS011;11709;52.420;10.538;2023-04-15T06:21:44;29.15;;;27.52;;
23082;SDS011;11709;52.420;10.538;2023-04-15T06:25:46;26.45;;;24.98;;
23082;SDS011;11709;52.420;10.538;2023-04-15T06:29:49;26.27;;;24.75;;
23082;SDS011;11709;52.420;10.538;2023-04-15T06:33:51;27.32;;;25.72;;
23082;SDS011;11709;52.420;10.538;2023-04-15T06:37:54;27.40;;;25.82;;
23082;SDS011;11709;52.420;10.538;2023-04-15T06:41:56;28.87;;;27.22;;
23082;SDS011;11709;52.420;10.538;2023-04-15T06:45:59;29.77;;;28.07;;
23082;SDS011;11709;52.420;10.538;2023-04-15T06:50:02;29.77;;;28.05;;
23082;SDS011;11709;52.420;10.538;2023-04-15T06:54:04;30.15;;;28.38;;
23082;SDS011;11709;52.420;10.538;2023-04-15T06:58:07;34.18;;;32.13;;
23082;SDS011;11709;52.420;10.538;2023-04-15T07:02:10;32.05;;;30.17;;
23082;SDS011;11709;52.420;10.538;2023-04-15T07:06:14;30.43;;;28.70;;
23082;SDS011;11709;52.420;10.538;2023-04-15T07:10:17;28.95;;;27.40;;
23082;SDS011;11709;52.420;10.538;2023-04-15T07:14:20;29.52;;;27.98;;
23082;SDS011;11709;52.420;10.538;2023-04-15T07:18:22;31.23;;;29.48;;
23082;SDS011;11709;52.420;10.538;2023-04-15T07:22:25;29.75;;;28.15;;
23082;SDS011;11709;52.420;10.538;2023-04-15T07:26:27;28.45;;;26.97;;
23082;SDS011;11709;52.420;10.538;2023-04-15T07:30:30;30.72;;;29.10;;
23082;SDS011;11709;52.420;10.538;2023-04-15T07:34:32;30.80;;;29.07;;
23082;SDS011;11709;52.420;10.538;2023-04-15T07:38:35;33.53;;;31.68;;
23082;SDS011;11709;52.420;10.538;2023-04-15T07:42:37;32.10;;;30.35;;
23082;SDS011;11709;52.420;10.538;2023-04-15T07:46:40;32.95;;;31.17;;
23082;SDS011;11709;52.420;10.538;2023-04-15T07:50:43;33.63;;;31.80;;
23082;SDS011;11709;52.420;10.538;2023-04-15T07:54:45;32.38;;;30.65;;
23082;SDS011;11709;52.420;10.538;2023-04-15T07:58:48;35.73;;;33.70;;
23082;SDS011;11709;52.420;10.538;2023-04-15T08:02:50;32.65;;;30.92;;
23082;SDS011;11709;52.420;10.538;2023-04-15T08:06:53;38.97;;;36.90;;
23082;SDS011;11709;52.420;10.538;2023-04-15T08:10:57;33.48;;;31.70;;
23082;SDS011;11709;52.420;10.538;2023-04-15T08:14:59;33.70;;;31.82;;
23082;SDS011;11709;52.420;10.538;2023-04-15T08:19:02;35.75;;;33.78;;
23082;SDS011;11709;52.420;10.538;2023-04-15T08:23:05;34.88;;;32.98;;
23082;SDS011;11709;52.420;10.538;2023-04-15T08:27:08;38.38;;;36.17;;
23082;SDS011;11709;52.420;10.538;2023-04-15T08:31:11;35.08;;;33.15;;
23082;SDS011;11709;52.420;10.538;2023-04-15T08:35:16;34.03;;;32.20;;
23082;SDS011;11709;52.420;10.538;2023-04-15T08:39:18;33.67;;;31.85;;
23082;SDS011;11709;52.420;10.538;2023-04-15T08:43:21;33.38;;;31.60;;
23082;SDS011;11709;52.420;10.538;2023-04-15T08:47:27;33.67;;;31.85;;
23082;SDS011;11709;52.420;10.538;2023-04-15T08:51:32;34.80;;;33.05;;
23082;SDS011;11709;52.420;10.538;2023-04-15T08:55:35;34.60;;;32.73;;
23082;SDS011;11709;52.420;10.538;2023-04-15T08:59:40;35.17;;;33.30;;
23082;SDS011;11709;52.420;10.538;2023-04-15T09:03:43;33.90;;;32.10;;
23082;SDS011;11709;52.420;10.538;2023-04-15T09:07:46;33.05;;;31.33;;
23082;SDS011;11709;52.420;10.538;2023-04-15T09:11:48;33.75;;;31.87;;
23082;SDS011;11709;52.420;10.538;2023-04-15T09:15:51;34.10;;;32.30;;
23082;SDS011;11709;52.420;10.538;2023-04-15T09:20:12;35.93;;;34.07;;
23082;SDS011;11709;52.420;10.538;2023-04-15T09:24:15;33.92;;;32.03;;
23082;SDS011;11709;52.420;10.538;2023-04-15T09:28:22;33.00;;;31.17;;
23082;SDS011;11709;52.420;10.538;2023-04-15T09:32:26;32.53;;;30.82;;
23082;SDS011;11709;52.420;10.538;2023-04-15T09:36:28;35.98;;;34.03;;
23082;SDS011;11709;52.420;10.538;2023-04-15T09:40:34;36.13;;;34.27;;
23082;SDS011;11709;52.420;10.538;2023-04-15T09:44:38;37.20;;;35.20;;
23082;SDS011;11709;52.420;10.538;2023-04-15T09:48:40;35.15;;;33.23;;
23082;SDS011;11709;52.420;10.538;2023-04-15T09:52:43;35.37;;;33.57;;
23082;SDS011;11709;52.420;10.538;2023-04-15T09:56:46;38.58;;;36.58;;
23082;SDS011;11709;52.420;10.538;2023-04-15T10:00:49;38.00;;;36.00;;
23082;SDS011;11709;52.420;10.538;2023-04-15T10:04:53;39.85;;;37.67;;
23082;SDS011;11709;52.420;10.538;2023-04-15T10:08:57;39.98;;;37.93;;
23082;SDS011;11709;52.420;10.538;2023-04-15T10:13:00;38.83;;;36.80;;
23082;SDS011;11709;52.420;10.538;2023-04-15T10:17:03;38.08;;;36.15;;
23082;SDS011;11709;52.420;10.538;2023-04-15T10:21:06;36.13;;;34.20;;
23082;SDS011;11709;52.420;10.538;2023-04-15T10:25:10;37.10;;;35.17;;
23082;SDS011;11709;52.420;10.538;2023-04-15T10:29:13;35.90;;;34.03;;
23082;SDS011;11709;52.420;10.538;2023-04-15T10:33:18;36.43;;;34.63;;
23082;SDS011;11709;52.420;10.538;2023-04-15T10:37:32;37.50;;;35.57;;
23082;SDS011;11709;52.420;10.538;2023-04-15T10:41:37;39.60;;;37.60;;
23082;SDS011;11709;52.420;10.538;2023-04-15T10:45:39;38.70;;;36.70;;
23082;SDS011;11709;52.420;10.538;2023-04-15T10:49:46;35.25;;;33.53;;
23082;SDS011;11709;52.420;10.538;2023-04-15T10:53:54;36.70;;;34.77;;
23082;SDS011;11709;52.420;10.538;2023-04-15T10:57:59;38.73;;;36.70;;
23082;SDS011;11709;52.420;10.538;2023-04-15T11:02:06;38.53;;;36.33;;
23082;SDS011;11709;52.420;10.538;2023-04-15T11:06:08;34.98;;;33.20;;
23082;SDS011;11709;52.420;10.538;2023-04-15T11:14:24;37.75;;;35.65;;
23082;SDS011;11709;52.420;10.538;2023-04-15T11:18:28;35.23;;;33.33;;
23082;SDS011;11709;52.420;10.538;2023-04-15T11:22:32;37.17;;;35.27;;
23082;SDS011;11709;52.420;10.538;2023-04-15T11:26:35;37.03;;;35.13;;
23082;SDS011;11709;52.420;10.538;2023-04-15T11:30:38;38.78;;;36.65;;
23082;SDS011;11709;52.420;10.538;2023-04-15T11:34:44;37.80;;;35.88;;
23082;SDS011;11709;52.420;10.538;2023-04-15T11:38:48;41.55;;;39.20;;
23082;SDS011;11709;52.420;10.538;2023-04-15T11:43:10;37.97;;;35.93;;
23082;SDS011;11709;52.420;10.538;2023-04-15T11:47:23;37.07;;;35.03;;
23082;SDS011;11709;52.420;10.538;2023-04-15T11:51:26;37.43;;;35.40;;
23082;SDS011;11709;52.420;10.538;2023-04-15T11:55:39;36.28;;;34.38;;
23082;SDS011;11709;52.420;10.538;2023-04-15T11:59:43;37.90;;;35.90;;
23082;SDS011;11709;52.420;10.538;2023-04-15T12:03:46;36.17;;;34.40;;
23082;SDS011;11709;52.420;10.538;2023-04-15T12:07:59;39.63;;;37.60;;
23082;SDS011;11709;52.420;10.538;2023-04-15T12:12:02;39.10;;;37.10;;
23082;SDS011;11709;52.420;10.538;2023-04-15T12:16:05;36.45;;;34.65;;
23082;SDS011;11709;52.420;10.538;2023-04-15T12:20:08;40.83;;;38.63;;
23082;SDS011;11709;52.420;10.538;2023-04-15T12:24:11;42.00;;;39.88;;
23082;SDS011;11709;52.420;10.538;2023-04-15T12:28:13;39.87;;;37.77;;
23082;SDS011;11709;52.420;10.538;2023-04-15T12:32:17;39.83;;;37.73;;
23082;SDS011;11709;52.420;10.538;2023-04-15T12:36:21;38.37;;;36.37;;
23082;SDS011;11709;52.420;10.538;2023-04-15T12:40:23;39.10;;;37.10;;
23082;SDS011;11709;52.420;10.538;2023-04-15T12:44:26;37.73;;;35.78;;
23082;SDS011;11709;52.420;10.538;2023-04-15T12:48:29;38.48;;;36.48;;
23082;SDS011;11709;52.420;10.538;2023-04-15T12:52:32;37.83;;;36.00;;
23082;SDS011;11709;52.420;10.538;2023-04-15T12:56:35;37.30;;;35.37;;
23082;SDS011;11709;52.420;10.538;2023-04-15T13:00:38;40.03;;;38.00;;
23082;SDS011;11709;52.420;10.538;2023-04-15T13:04:40;39.65;;;37.60;;
23082;SDS011;11709;52.420;10.538;2023-04-15T13:08:43;40.48;;;38.38;;
23082;SDS011;11709;52.420;10.538;2023-04-15T13:12:46;40.78;;;38.67;;
23082;SDS011;11709;52.420;10.538;2023-04-15T13:16:52;40.05;;;37.90;;
23082;SDS011;11709;52.420;10.538;2023-04-15T13:20:54;35.25;;;33.53;;
23082;SDS011;11709;52.420;10.538;2023-04-15T13:24:57;32.17;;;30.57;;
23082;SDS011;11709;52.420;10.538;2023-04-15T13:28:59;35.35;;;33.45;;
23082;SDS011;11709;52.420;10.538;2023-04-15T13:33:02;33.13;;;31.57;;
23082;SDS011;11709;52.420;10.538;2023-04-15T13:37:05;33.85;;;32.05;;
23082;SDS011;11709;52.420;10.538;2023-04-15T13:41:08;32.50;;;30.88;;
23082;SDS011;11709;52.420;10.538;2023-04-15T13:45:10;33.67;;;32.00;;
23082;SDS011;11709;52.420;10.538;2023-04-15T13:49:13;32.23;;;30.62;;
23082;SDS011;11709;52.420;10.538;2023-04-15T13:53:15;31.85;;;30.15;;
23082;SDS011;11709;52.420;10.538;2023-04-15T13:57:18;34.13;;;32.23;;
23082;SDS011;11709;52.420;10.538;2023-04-15T14:01:20;31.37;;;29.77;;
23082;SDS011;11709;52.420;10.538;2023-04-15T14:05:23;31.37;;;29.72;;
23082;SDS011;11709;52.420;10.538;2023-04-15T14:09:25;29.57;;;28.10;;
23082;SDS011;11709;52.420;10.538;2023-04-15T14:13:28;28.57;;;26.93;;
23082;SDS011;11709;52.420;10.538;2023-04-15T14:17:31;30.37;;;28.87;;
23082;SDS011;11709;52.420;10.538;2023-04-15T14:21:34;29.05;;;27.48;;
23082;SDS011;11709;52.420;10.538;2023-04-15T14:25:36;29.02;;;27.45;;
23082;SDS011;11709;52.420;10.538;2023-04-15T14:29:39;28.90;;;27.48;;
23082;SDS011;11709;52.420;10.538;2023-04-15T14:33:42;32.70;;;30.45;;
23082;SDS011;11709;52.420;10.538;2023-04-15T14:37:44;30.57;;;28.98;;
23082;SDS011;11709;52.420;10.538;2023-04-15T14:41:46;30.68;;;29.07;;
23082;SDS011;11709;52.420;10.538;2023-04-15T14:45:49;26.07;;;24.63;;
23082;SDS011;11709;52.420;10.538;2023-04-15T14:49:52;32.08;;;30.37;;
23082;SDS011;11709;52.420;10.538;2023-04-15T14:53:54;31.90;;;30.25;;
23082;SDS011;11709;52.420;10.538;2023-04-15T14:57:57;28.98;;;27.45;;
23082;SDS011;11709;52.420;10.538;2023-04-15T15:01:59;22.65;;;21.35;;
23082;SDS011;11709;52.420;10.538;2023-04-15T15:06:02;24.45;;;23.02;;
23082;SDS011;11709;52.420;10.538;2023-04-15T15:10:05;28.55;;;27.00;;
23082;SDS011;11709;52.420;10.538;2023-04-15T15:14:07;28.98;;;27.35;;
23082;SDS011;11709;52.420;10.538;2023-04-15T15:18:10;29.07;;;27.50;;
23082;SDS011;11709;52.420;10.538;2023-04-15T15:22:13;26.07;;;24.75;;
23082;SDS011;11709;52.420;10.538;2023-04-15T15:26:15;28.12;;;26.62;;
23082;SDS011;11709;52.420;10.538;2023-04-15T15:30:19;27.20;;;25.80;;
23082;SDS011;11709;52.420;10.538;2023-04-15T15:34:21;26.17;;;24.77;;
23082;SDS011;11709;52.420;10.538;2023-04-15T15:38:24;29.07;;;27.58;;
23082;SDS011;11709;52.420;10.538;2023-04-15T15:42:26;28.92;;;27.37;;
23082;SDS011;11709;52.420;10.538;2023-04-15T15:46:32;30.02;;;28.45;;
23082;SDS011;11709;52.420;10.538;2023-04-15T15:50:35;32.55;;;30.82;;
23082;SDS011;11709;52.420;10.538;2023-04-15T15:54:38;31.48;;;29.85;;
23082;SDS011;11709;52.420;10.538;2023-04-15T15:58:41;30.50;;;28.90;;
23082;SDS011;11709;52.420;10.538;2023-04-15T16:02:44;29.35;;;27.82;;
23082;SDS011;11709;52.420;10.538;2023-04-15T16:06:47;30.10;;;28.32;;
23082;SDS011;11709;52.420;10.538;2023-04-15T16:10:49;30.48;;;28.87;;
23082;SDS011;11709;52.420;10.538;2023-04-15T16:14:52;29.12;;;27.73;;
23082;SDS011;11709;52.420;10.538;2023-04-15T16:18:56;30.55;;;28.83;;
23082;SDS011;11709;52.420;10.538;2023-04-15T16:22:58;33.98;;;32.20;;
23082;SDS011;11709;52.420;10.538;2023-04-15T16:27:02;29.60;;;27.93;;
23082;SDS011;11709;52.420;10.538;2023-04-15T16:31:05;32.33;;;30.62;;
23082;SDS011;11709;52.420;10.538;2023-04-15T16:35:08;29.82;;;28.30;;
23082;SDS011;11709;52.420;10.538;2023-04-15T16:39:11;29.92;;;28.42;;
23082;SDS011;11709;52.420;10.538;2023-04-15T16:43:13;31.07;;;29.45;;
23082;SDS011;11709;52.420;10.538;2023-04-15T16:47:16;29.30;;;27.77;;
23082;SDS011;11709;52.420;10.538;2023-04-15T16:51:18;29.35;;;27.75;;
23082;SDS011;11709;52.420;10.538;2023-04-15T16:55:21;34.85;;;33.08;;
23082;SDS011;11709;52.420;10.538;2023-04-15T16:59:24;33.15;;;31.57;;
23082;SDS011;11709;52.420;10.538;2023-04-15T17:03:27;34.80;;;33.00;;
23082;SDS011;11709;52.420;10.538;2023-04-15T17:07:29;34.80;;;32.95;;
23082;SDS011;11709;52.420;10.538;2023-04-15T17:11:32;35.88;;;34.03;;
23082;SDS011;11709;52.420;10.538;2023-04-15T17:15:34;35.70;;;33.90;;
23082;SDS011;11709;52.420;10.538;2023-04-15T17:19:37;36.88;;;35.00;;
23082;SDS011;11709;52.420;10.538;2023-04-15T17:23:39;33.15;;;31.55;;
23082;SDS011;11709;52.420;10.538;2023-04-15T17:27:42;36.68;;;34.78;;
23082;SDS011;11709;52.420;10.538;2023-04-15T17:31:45;38.88;;;36.88;;
23082;SDS011;11709;52.420;10.538;2023-04-15T17:35:47;39.33;;;37.40;;
23082;SDS011;11709;52.420;10.538;2023-04-15T17:39:50;39.13;;;37.20;;
23082;SDS011;11709;52.420;10.538;2023-04-15T17:44:05;39.18;;;37.28;;
23082;SDS011;11709;52.420;10.538;2023-04-15T17:48:21;39.58;;;37.53;;
23082;SDS011;11709;52.420;10.538;2023-04-15T17:52:25;39.88;;;37.88;;
23082;SDS011;11709;52.420;10.538;2023-04-15T17:56:29;41.83;;;39.63;;
23082;SDS011;11709;52.420;10.538;2023-04-15T18:00:35;41.70;;;39.53;;
23082;SDS011;11709;52.420;10.538;2023-04-15T18:04:42;39.27;;;37.28;;
23082;SDS011;11709;52.420;10.538;2023-04-15T18:08:45;40.20;;;38.00;;
23082;SDS011;11709;52.420;10.538;2023-04-15T18:12:51;41.85;;;39.65;;
23082;SDS011;11709;52.420;10.538;2023-04-15T18:16:54;37.13;;;35.25;;
23082;SDS011;11709;52.420;10.538;2023-04-15T18:20:57;39.75;;;37.73;;
23082;SDS011;11709;52.420;10.538;2023-04-15T18:24:59;40.38;;;38.35;;
23082;SDS011;11709;52.420;10.538;2023-04-15T18:29:15;39.73;;;37.78;;
23082;SDS011;11709;52.420;10.538;2023-04-15T18:33:19;41.73;;;39.55;;
23082;SDS011;11709;52.420;10.538;2023-04-15T18:37:24;40.95;;;38.95;;
23082;SDS011;11709;52.420;10.538;2023-04-15T18:41:29;42.20;;;39.98;;
23082;SDS011;11709;52.420;10.538;2023-04-15T18:45:34;40.80;;;38.63;;
23082;SDS011;11709;52.420;10.538;2023-04-15T18:49:37;40.03;;;38.02;;
23082;SDS011;11709;52.420;10.538;2023-04-15T18:53:42;42.47;;;40.27;;
23082;SDS011;11709;52.420;10.538;2023-04-15T18:57:44;45.08;;;42.70;;
23082;SDS011;11709;52.420;10.538;2023-04-15T19:01:49;41.40;;;39.30;;
23082;SDS011;11709;52.420;10.538;2023-04-15T19:05:53;43.17;;;40.98;;
23082;SDS011;11709;52.420;10.538;2023-04-15T19:09:56;43.78;;;41.58;;
23082;SDS011;11709;52.420;10.538;2023-04-15T19:14:01;41.03;;;38.83;;
23082;SDS011;11709;52.420;10.538;2023-04-15T19:18:05;41.65;;;39.42;;
23082;SDS011;11709;52.420;10.538;2023-04-15T19:22:09;43.68;;;41.37;;
23082;SDS011;11709;52.420;10.538;2023-04-15T19:26:14;38.30;;;36.38;;
23082;SDS011;11709;52.420;10.538;2023-04-15T19:30:21;41.48;;;39.48;;
23082;SDS011;11709;52.420;10.538;2023-04-15T19:34:24;39.67;;;37.70;;
23082;SDS011;11709;52.420;10.538;2023-04-15T19:38:26;39.80;;;37.70;;
23082;SDS011;11709;52.420;10.538;2023-04-15T19:42:30;40.50;;;38.47;;
23082;SDS011;11709;52.420;10.538;2023-04-15T19:46:37;41.77;;;39.83;;
23082;SDS011;11709;52.420;10.538;2023-04-15T19:50:43;41.83;;;39.70;;
23082;SDS011;11709;52.420;10.538;2023-04-15T19:54:50;39.67;;;37.70;;
23082;SDS011;11709;52.420;10.538;2023-04-15T19:58:53;42.60;;;40.27;;
23082;SDS011;11709;52.420;10.538;2023-04-15T20:02:57;42.30;;;40.03;;
23082;SDS011;11709;52.420;10.538;2023-04-15T20:07:02;41.07;;;39.00;;
23082;SDS011;11709;52.420;10.538;2023-04-15T20:11:07;41.58;;;39.38;;
23082;SDS011;11709;52.420;10.538;2023-04-15T20:15:11;31.93;;;30.27;;
23082;SDS011;11709;52.420;10.538;2023-04-15T20:19:13;37.05;;;35.23;;
23082;SDS011;11709;52.420;10.538;2023-04-15T20:23:16;34.80;;;32.98;;
23082;SDS011;11709;52.420;10.538;2023-04-15T20:27:19;30.52;;;28.83;;
23082;SDS011;11709;52.420;10.538;2023-04-15T20:31:21;29.05;;;27.48;;
23082;SDS011;11709;52.420;10.538;2023-04-15T20:35:24;29.02;;;27.55;;
23082;SDS011;11709;52.420;10.538;2023-04-15T20:39:28;33.25;;;31.33;;
23082;SDS011;11709;52.420;10.538;2023-04-15T20:43:31;33.50;;;31.62;;
23082;SDS011;11709;52.420;10.538;2023-04-15T20:47:33;28.62;;;27.07;;
23082;SDS011;11709;52.420;10.538;2023-04-15T20:51:36;30.70;;;29.10;;
23082;SDS011;11709;52.420;10.538;2023-04-15T20:55:38;27.67;;;26.33;;
23082;SDS011;11709;52.420;10.538;2023-04-15T20:59:41;28.73;;;27.17;;
23082;SDS011;11709;52.420;10.538;2023-04-15T21:03:44;32.67;;;30.75;;
23082;SDS011;11709;52.420;10.538;2023-04-15T21:07:46;34.40;;;32.33;;
23082;SDS011;11709;52.420;10.538;2023-04-15T21:11:49;33.40;;;31.40;;
23082;SDS011;11709;52.420;10.538;2023-04-15T21:15:51;29.63;;;27.98;;
23082;SDS011;11709;52.420;10.538;2023-04-15T21:19:54;30.55;;;28.92;;
23082;SDS011;11709;52.420;10.538;2023-04-15T21:24:01;41.20;;;39.00;;
23082;SDS011;11709;52.420;10.538;2023-04-15T21:28:00;34.33;;;32.33;;
23082;SDS011;11709;52.420;10.538;2023-04-15T21:32:03;31.85;;;30.15;;
23082;SDS011;11709;52.420;10.538;2023-04-15T21:36:06;34.23;;;32.45;;
23082;SDS011;11709;52.420;10.538;2023-04-15T21:40:09;32.58;;;30.92;;
23082;SDS011;11709;52.420;10.538;2023-04-15T21:44:11;31.02;;;29.42;;
23082;SDS011;11709;52.420;10.538;2023-04-15T21:48:14;37.95;;;35.85;;
23082;SDS011;11709;52.420;10.538;2023-04-15T21:52:16;36.15;;;34.33;;
23082;SDS011;11709;52.420;10.538;2023-04-15T21:56:19;35.55;;;33.75;;
23082;SDS011;11709;52.420;10.538;2023-04-15T22:00:23;36.53;;;34.63;;
23082;SDS011;11709;52.420;10.538;2023-04-15T22:04:26;32.73;;;31.23;;
23082;SDS011;11709;52.420;10.538;2023-04-15T22:08:28;33.92;;;32.13;;
23082;SDS011;11709;52.420;10.538;2023-04-15T22:12:32;35.40;;;33.53;;
23082;SDS011;11709;52.420;10.538;2023-04-15T22:16:34;34.35;;;32.55;;
23082;SDS011;11709;52.420;10.538;2023-04-15T22:20:37;34.55;;;32.75;;
23082;SDS011;11709;52.420;10.538;2023-04-15T22:24:40;29.60;;;27.98;;
23082;SDS011;11709;52.420;10.538;2023-04-15T22:28:43;36.27;;;34.33;;
23082;SDS011;11709;52.420;10.538;2023-04-15T22:32:45;38.00;;;35.88;;
23082;SDS011;11709;52.420;10.538;2023-04-15T22:36:48;37.30;;;35.35;;
23082;SDS011;11709;52.420;10.538;2023-04-15T22:40:52;37.20;;;35.20;;
23082;SDS011;11709;52.420;10.538;2023-04-15T22:44:54;33.78;;;32.05;;
23082;SDS011;11709;52.420;10.538;2023-04-15T22:48:57;35.20;;;33.30;;
23082;SDS011;11709;52.420;10.538;2023-04-15T22:52:59;35.10;;;33.28;;
23082;SDS011;11709;52.420;10.538;2023-04-15T22:57:02;32.95;;;31.25;;
23082;SDS011;11709;52.420;10.538;2023-04-15T23:01:04;35.27;;;33.37;;
23082;SDS011;11709;52.420;10.538;2023-04-15T23:05:08;34.10;;;32.33;;
23082;SDS011;11709;52.420;10.538;2023-04-15T23:09:11;33.53;;;31.97;;
23082;SDS011;11709;52.420;10.538;2023-04-15T23:13:13;36.43;;;34.30;;
23082;SDS011;11709;52.420;10.538;2023-04-15T23:17:16;35.78;;;33.95;;
23082;SDS011;11709;52.420;10.538;2023-04-15T23:21:18;32.78;;;31.00;;
23082;SDS011;11709;52.420;10.538;2023-04-15T23:25:21;32.78;;;31.20;;